Time;durP1;ratioP1;P1;durP2;ratioP2;P2;SDS_P1;SDS_P2;PMS_P1;PMS_P2;Temp;Humidity;BMP_temperature;BMP_pressure;BME280_temperature;BME280_humidity;BME280_pressure;Samples;Min_cycle;Max_cycle;Signal;HPM_P1;HPM_P2
2022/11/19 00:00:44;;;;;;;0.98;0.88;;;;;;;;;;5001936;28;20141;-70
2022/11/19 00:03:11;;;;;;;1.23;0.80;;;;;;;;;;5001626;28;20041;-70
2022/11/19 00:05:40;;;;;;;0.60;0.60;;;;;;;;;;5001824;28;20384;-69
2022/11/19 00:08:06;;;;;;;2.20;0.90;;;;;;;;;;5001497;28;20050;-69
2022/11/19 00:10:34;;;;;;;1.20;0.70;;;;;;;;;;5001053;28;20038;-69
2022/11/19 00:13:00;;;;;;;0.70;0.65;;;;;;;;;;5001987;28;20476;-69
2022/11/19 00:15:26;;;;;;;0.52;0.52;;;;;;;;;;5001966;28;20101;-69
2022/11/19 00:17:51;;;;;;;0.95;0.93;;;;;;;;;;5002108;28;20045;-69
2022/11/19 00:20:17;;;;;;;2.35;0.98;;;;;;;;;;5001220;28;20121;-69
2022/11/19 00:22:43;;;;;;;0.73;0.73;;;;;;;;;;5002961;28;20446;-69
2022/11/19 00:25:10;;;;;;;0.63;0.63;;;;;;;;;;5001088;28;20061;-70
2022/11/19 00:27:36;;;;;;;0.70;0.70;;;;;;;;;;5002410;28;20042;-70
2022/11/19 00:30:03;;;;;;;0.63;0.63;;;;;;;;;;5003671;28;20053;-70
2022/11/19 00:32:30;;;;;;;1.23;0.90;;;;;;;;;;5002055;28;20061;-70
2022/11/19 00:34:56;;;;;;;0.80;0.80;;;;;;;;;;5004658;28;20450;-70
2022/11/19 00:37:22;;;;;;;1.25;0.90;;;;;;;;;;5004033;28;20046;-69
2022/11/19 00:39:47;;;;;;;2.75;0.98;;;;;;;;;;5006521;28;20053;-70
2022/11/19 00:42:12;;;;;;;1.38;0.90;;;;;;;;;;5003647;28;20042;-70
2022/11/19 00:44:38;;;;;;;5.00;1.20;;;;;;;;;;5005481;28;20411;-69
2022/11/19 00:47:04;;;;;;;2.58;0.88;;;;;;;;;;5003788;28;20415;-68
2022/11/19 00:49:29;;;;;;;0.82;0.80;;;;;;;;;;5002794;28;20530;-67
2022/11/19 00:51:54;;;;;;;1.48;1.02;;;;;;;;;;5003877;28;20061;-68
2022/11/19 00:54:20;;;;;;;1.45;0.95;;;;;;;;;;5001863;28;20061;-67
2022/11/19 00:56:45;;;;;;;1.67;0.82;;;;;;;;;;5004037;28;20080;-67
2022/11/19 00:59:11;;;;;;;1.08;0.95;;;;;;;;;;5003259;28;20449;-67
2022/11/19 01:01:36;;;;;;;2.50;1.10;;;;;;;;;;5002749;28;20046;-68
2022/11/19 01:04:02;;;;;;;0.93;0.90;;;;;;;;;;5003915;28;20046;-67
2022/11/19 01:06:28;;;;;;;1.75;1.38;;;;;;;;;;5000651;28;20161;-68
2022/11/19 01:08:53;;;;;;;5.32;1.30;;;;;;;;;;5003736;28;20073;-68
2022/11/19 01:11:25;;;;;;;5.65;1.38;;;;;;;;;;5002929;28;20041;-68
2022/11/19 01:13:50;;;;;;;5.15;1.20;;;;;;;;;;5002753;28;20080;-68
2022/11/19 01:16:18;;;;;;;1.20;1.10;;;;;;;;;;5001511;28;20046;-68
2022/11/19 01:18:45;;;;;;;1.30;1.20;;;;;;;;;;5000748;28;20050;-68
2022/11/19 01:21:11;;;;;;;0.82;0.82;;;;;;;;;;4997344;28;20344;-68
2022/11/19 01:23:41;;;;;;;1.95;1.27;;;;;;;;;;4999996;28;20045;-68
2022/11/19 01:26:07;;;;;;;1.40;1.20;;;;;;;;;;5000127;28;20053;-69
2022/11/19 01:28:33;;;;;;;1.00;1.00;;;;;;;;;;5000643;28;20047;-68
2022/11/19 01:30:59;;;;;;;1.23;1.23;;;;;;;;;;5001483;28;20069;-68
2022/11/19 01:33:24;;;;;;;1.17;1.08;;;;;;;;;;5001852;28;20038;-68
2022/11/19 01:35:57;;;;;;;1.13;1.08;;;;;;;;;;5002963;28;20057;-68
2022/11/19 01:38:23;;;;;;;1.30;1.20;;;;;;;;;;5002749;28;20494;-68
2022/11/19 01:40:48;;;;;;;2.00;1.10;;;;;;;;;;5001546;28;20088;-68
2022/11/19 01:43:14;;;;;;;1.40;1.30;;;;;;;;;;5001938;28;20045;-67
2022/11/19 01:45:58;;;;;;;3.15;1.00;;;;;;;;;;5001869;28;20519;-67
2022/11/19 01:48:29;;;;;;;1.50;1.40;;;;;;;;;;5001951;28;20058;-66
2022/11/19 01:51:07;;;;;;;3.40;1.10;;;;;;;;;;5001262;28;20126;-67
2022/11/19 01:53:34;;;;;;;2.47;1.25;;;;;;;;;;5000786;28;20129;-68
2022/11/19 01:56:03;;;;;;;2.55;1.30;;;;;;;;;;5002496;28;20129;-68
2022/11/19 01:58:32;;;;;;;1.33;1.23;;;;;;;;;;5002494;28;20049;-68
2022/11/19 02:00:58;;;;;;;2.72;1.70;;;;;;;;;;5001243;28;20425;-68
2022/11/19 02:03:26;;;;;;;3.63;1.40;;;;;;;;;;5000882;28;20053;-68
2022/11/19 02:05:52;;;;;;;1.60;1.50;;;;;;;;;;5000353;28;20064;-68
2022/11/19 02:08:42;;;;;;;3.08;1.40;;;;;;;;;;5001775;28;20053;-67
2022/11/19 02:11:27;;;;;;;1.90;1.40;;;;;;;;;;4997015;28;20077;-69
2022/11/19 02:14:01;;;;;;;1.63;1.17;;;;;;;;;;4998942;28;20100;-68
2022/11/19 02:16:44;;;;;;;3.05;1.63;;;;;;;;;;5001194;28;20467;-68
2022/11/19 02:19:28;;;;;;;2.55;1.65;;;;;;;;;;5000127;28;20045;-69
2022/11/19 02:22:02;;;;;;;2.10;1.70;;;;;;;;;;5008121;28;20132;-67
2022/11/19 02:24:50;;;;;;;1.38;1.20;;;;;;;;;;4999848;28;20081;-68
2022/11/19 02:27:34;;;;;;;2.17;1.40;;;;;;;;;;5001431;28;20096;-68
2022/11/19 02:30:17;;;;;;;3.63;1.48;;;;;;;;;;5001085;28;20054;-68
2022/11/19 02:32:51;;;;;;;2.83;1.83;;;;;;;;;;5001573;28;20054;-68
2022/11/19 02:35:33;;;;;;;2.70;1.52;;;;;;;;;;4999888;28;20040;-68
2022/11/19 02:38:07;;;;;;;1.55;1.45;;;;;;;;;;5001098;28;20042;-68
2022/11/19 02:40:39;;;;;;;2.78;1.17;;;;;;;;;;4999513;28;20057;-68
2022/11/19 02:43:22;;;;;;;1.75;1.60;;;;;;;;;;5001400;28;20046;-68
2022/11/19 02:45:56;;;;;;;3.25;1.58;;;;;;;;;;4993112;28;20064;-69
2022/11/19 02:48:27;;;;;;;3.08;1.63;;;;;;;;;;4998097;28;20064;-69
2022/11/19 02:50:58;;;;;;;1.40;1.30;;;;;;;;;;5000590;28;20220;-68
2022/11/19 02:53:23;;;;;;;4.53;1.43;;;;;;;;;;5001394;28;20055;-68
2022/11/19 03:06:53;;;;;;;2.47;1.30;;;;;;;;;;5000547;28;20067;-68
2022/11/19 03:09:19;;;;;;;1.40;1.20;;;;;;;;;;4999618;28;20048;-68
2022/11/19 03:11:51;;;;;;;1.58;1.25;;;;;;;;;;5000362;28;20042;-69
2022/11/19 03:17:25;;;;;;;3.50;1.20;;;;;;;;;;5000473;28;20068;-68
2022/11/19 03:20:17;;;;;;;;;;;;;;;;;;4999462;28;20558;-67
2022/11/19 03:22:57;;;;;;;4.07;1.40;;;;;;;;;;5001187;28;20004;-66
2022/11/19 03:25:39;;;;;;;2.72;1.25;;;;;;;;;;4998988;28;20042;-68
2022/11/19 03:28:11;;;;;;;1.10;1.00;;;;;;;;;;4998159;28;20491;-66
2022/11/19 03:30:40;;;;;;;1.52;1.23;;;;;;;;;;4997915;28;20049;-69
2022/11/19 03:33:14;;;;;;;2.50;1.00;;;;;;;;;;5004411;28;20030;-69
2022/11/19 03:35:45;;;;;;;1.73;1.25;;;;;;;;;;5001740;28;20065;-69
2022/11/19 03:38:15;;;;;;;1.17;0.90;;;;;;;;;;5002885;28;20550;-69
2022/11/19 03:40:42;;;;;;;12.27;1.38;;;;;;;;;;5003334;28;20117;-69
2022/11/19 03:43:12;;;;;;;3.13;1.05;;;;;;;;;;4999492;28;20490;-69
2022/11/19 03:45:43;;;;;;;1.98;0.80;;;;;;;;;;4998380;28;20057;-69
2022/11/19 03:48:10;;;;;;;0.82;0.70;;;;;;;;;;5000782;28;20093;-69
2022/11/19 03:50:47;;;;;;;1.00;0.90;;;;;;;;;;4999465;28;21060;-69
2022/11/19 03:53:13;;;;;;;0.85;0.75;;;;;;;;;;4999099;28;20502;-69
2022/11/19 03:55:56;;;;;;;3.70;0.88;;;;;;;;;;4999748;28;20065;-69
2022/11/19 03:58:25;;;;;;;1.48;0.82;;;;;;;;;;5000256;28;20050;-69
2022/11/19 04:00:51;;;;;;;4.28;1.00;;;;;;;;;;5000062;28;20517;-70
2022/11/19 04:03:16;;;;;;;1.58;1.02;;;;;;;;;;4999552;28;20038;-68
2022/11/19 04:05:42;;;;;;;1.00;0.90;;;;;;;;;;4999727;28;20049;-68
2022/11/19 04:08:07;;;;;;;2.20;1.00;;;;;;;;;;5000085;28;20050;-68
2022/11/19 04:10:33;;;;;;;1.40;0.90;;;;;;;;;;5000586;28;20046;-68
2022/11/19 04:12:58;;;;;;;3.92;1.92;;;;;;;;;;5001121;28;20049;-68
2022/11/19 04:15:24;;;;;;;0.70;0.70;;;;;;;;;;5002167;28;20601;-68
2022/11/19 04:17:49;;;;;;;7.18;0.85;;;;;;;;;;5002902;28;20387;-68
2022/11/19 04:20:14;;;;;;;6.82;1.00;;;;;;;;;;5004153;28;20046;-69
2022/11/19 04:22:40;;;;;;;2.50;1.10;;;;;;;;;;5004431;28;20042;-69
2022/11/19 04:25:06;;;;;;;1.85;1.10;;;;;;;;;;5003588;28;20042;-68
2022/11/19 04:27:32;;;;;;;3.40;0.90;;;;;;;;;;5002386;28;20053;-68
2022/11/19 04:29:57;;;;;;;1.85;0.93;;;;;;;;;;5003594;28;20525;-68
2022/11/19 04:32:23;;;;;;;1.05;0.60;;;;;;;;;;5003196;28;20049;-68
2022/11/19 04:34:48;;;;;;;0.85;0.85;;;;;;;;;;5003718;28;20402;-67
2022/11/19 04:37:14;;;;;;;1.08;0.60;;;;;;;;;;5002081;28;20049;-67
2022/11/19 04:39:39;;;;;;;3.47;0.63;;;;;;;;;;5001763;28;20042;-67
2022/11/19 04:42:05;;;;;;;0.80;0.80;;;;;;;;;;5003513;28;20041;-68
2022/11/19 04:44:31;;;;;;;1.05;0.77;;;;;;;;;;5002053;28;20161;-68
2022/11/19 04:46:58;;;;;;;0.77;0.77;;;;;;;;;;5002744;28;20076;-68
2022/11/19 04:49:24;;;;;;;1.65;0.60;;;;;;;;;;5002656;28;20633;-68
2022/11/19 04:51:49;;;;;;;1.88;0.70;;;;;;;;;;5002577;28;20041;-67
2022/11/19 04:54:14;;;;;;;0.70;0.70;;;;;;;;;;5003840;28;20890;-72
2022/11/19 04:56:40;;;;;;;1.13;0.85;;;;;;;;;;5002761;28;20045;-74
2022/11/19 04:59:05;;;;;;;0.57;0.50;;;;;;;;;;4996933;28;20427;-71
2022/11/19 05:01:31;;;;;;;1.25;0.88;;;;;;;;;;5000942;28;20494;-71
2022/11/19 05:03:56;;;;;;;2.75;0.60;;;;;;;;;;4996621;28;20052;-70
2022/11/19 05:06:22;;;;;;;3.72;0.70;;;;;;;;;;5000853;28;20057;-70
2022/11/19 05:08:47;;;;;;;0.75;0.50;;;;;;;;;;5001701;28;20061;-70
2022/11/19 05:11:12;;;;;;;0.60;0.60;;;;;;;;;;5001425;28;20046;-70
2022/11/19 05:13:38;;;;;;;3.00;0.73;;;;;;;;;;5001415;28;20069;-70
2022/11/19 05:16:04;;;;;;;1.55;0.82;;;;;;;;;;4999694;28;20139;-71
2022/11/19 05:18:29;;;;;;;0.60;0.60;;;;;;;;;;4999667;28;20979;-70
2022/11/19 05:20:54;;;;;;;1.13;0.90;;;;;;;;;;4999581;28;20050;-70
2022/11/19 05:23:20;;;;;;;0.75;0.70;;;;;;;;;;5000174;28;20041;-70
2022/11/19 05:25:46;;;;;;;1.77;0.68;;;;;;;;;;5000530;28;20593;-70
2022/11/19 05:28:11;;;;;;;1.20;0.75;;;;;;;;;;5001132;28;20084;-70
2022/11/19 05:30:37;;;;;;;0.73;0.52;;;;;;;;;;5000421;28;20050;-70
2022/11/19 05:33:03;;;;;;;1.00;0.50;;;;;;;;;;4999647;28;20041;-70
2022/11/19 05:35:28;;;;;;;2.65;0.70;;;;;;;;;;5000329;28;20124;-70
2022/11/19 05:37:54;;;;;;;1.20;0.90;;;;;;;;;;4999294;28;20046;-70
2022/11/19 05:40:19;;;;;;;1.25;0.88;;;;;;;;;;5000204;28;20053;-70
2022/11/19 05:42:45;;;;;;;1.02;0.70;;;;;;;;;;4999731;28;20144;-70
2022/11/19 05:45:10;;;;;;;2.25;0.80;;;;;;;;;;5000127;28;20081;-70
2022/11/19 05:47:36;;;;;;;0.98;0.80;;;;;;;;;;4995813;28;20466;-70
2022/11/19 05:50:02;;;;;;;0.80;0.80;;;;;;;;;;4997428;28;20136;-70
2022/11/19 05:52:27;;;;;;;1.08;0.85;;;;;;;;;;4997799;28;20553;-70
2022/11/19 05:54:53;;;;;;;0.75;0.75;;;;;;;;;;4999060;28;20054;-70
2022/11/19 05:57:18;;;;;;;1.63;0.77;;;;;;;;;;4998188;28;20050;-71
2022/11/19 05:59:44;;;;;;;0.98;0.98;;;;;;;;;;4996611;28;20200;-70
2022/11/19 06:02:09;;;;;;;3.47;0.90;;;;;;;;;;4997960;28;20046;-70
2022/11/19 06:04:35;;;;;;;4.40;0.90;;;;;;;;;;4996709;28;20046;-70
2022/11/19 06:07:00;;;;;;;0.75;0.70;;;;;;;;;;4994761;28;20072;-70
2022/11/19 06:09:26;;;;;;;1.15;0.60;;;;;;;;;;4997497;28;20397;-69
2022/11/19 06:11:51;;;;;;;1.10;0.70;;;;;;;;;;5000026;28;20054;-70
2022/11/19 06:14:22;;;;;;;0.88;0.70;;;;;;;;;;5000084;28;20100;-70
2022/11/19 06:16:53;;;;;;;2.53;0.80;;;;;;;;;;4999637;28;20129;-69
2022/11/19 06:19:19;;;;;;;0.50;0.50;;;;;;;;;;5001371;28;20935;-70
2022/11/19 06:21:45;;;;;;;0.77;0.77;;;;;;;;;;5000416;28;20034;-70
2022/11/19 06:24:11;;;;;;;0.65;0.65;;;;;;;;;;5001206;28;20184;-69
2022/11/19 06:26:37;;;;;;;3.78;1.33;;;;;;;;;;4998008;28;20060;-69
2022/11/19 06:29:03;;;;;;;0.93;0.93;;;;;;;;;;5001462;28;20606;-71
2022/11/19 06:31:28;;;;;;;1.88;0.98;;;;;;;;;;5000512;28;20984;-70
2022/11/19 06:33:54;;;;;;;3.90;1.08;;;;;;;;;;4999388;28;20069;-70
2022/11/19 06:36:20;;;;;;;1.38;1.10;;;;;;;;;;4999010;28;20765;-71
2022/11/19 06:38:46;;;;;;;2.90;1.38;;;;;;;;;;4998167;28;20050;-72
2022/11/19 06:41:11;;;;;;;1.13;1.02;;;;;;;;;;4996662;28;20037;-70
2022/11/19 06:43:37;;;;;;;1.38;1.10;;;;;;;;;;4995651;28;20046;-70
2022/11/19 06:46:02;;;;;;;0.90;0.90;;;;;;;;;;4996286;28;20156;-71
2022/11/19 06:48:27;;;;;;;1.10;0.82;;;;;;;;;;4994518;28;20398;-70
2022/11/19 06:50:53;;;;;;;1.20;1.02;;;;;;;;;;4994463;28;20034;-70
2022/11/19 06:53:18;;;;;;;0.95;0.90;;;;;;;;;;4995909;28;20115;-71
2022/11/19 06:55:44;;;;;;;1.00;1.00;;;;;;;;;;4996830;28;20121;-69
2022/11/19 06:58:09;;;;;;;0.90;0.90;;;;;;;;;;4997045;28;20434;-71
2022/11/19 07:00:35;;;;;;;1.85;0.90;;;;;;;;;;4995929;28;20088;-70
2022/11/19 07:03:01;;;;;;;1.95;1.48;;;;;;;;;;4997613;28;20050;-69
2022/11/19 07:05:27;;;;;;;1.05;1.00;;;;;;;;;;4997495;28;20949;-69
2022/11/19 07:07:52;;;;;;;1.77;1.63;;;;;;;;;;4996689;28;20033;-69
2022/11/19 07:10:18;;;;;;;2.80;1.35;;;;;;;;;;4997981;28;20060;-70
2022/11/19 07:12:43;;;;;;;1.00;1.00;;;;;;;;;;5000947;28;20045;-72
2022/11/19 07:15:09;;;;;;;0.93;0.93;;;;;;;;;;4998216;28;20099;-72
2022/11/19 07:17:36;;;;;;;1.95;0.90;;;;;;;;;;4996964;28;20046;-71
2022/11/19 07:20:02;;;;;;;2.35;0.77;;;;;;;;;;5001846;28;20049;-72
2022/11/19 07:22:28;;;;;;;1.63;0.90;;;;;;;;;;4997232;28;20053;-72
2022/11/19 07:24:53;;;;;;;1.02;1.00;;;;;;;;;;4998690;28;20050;-72
2022/11/19 07:27:19;;;;;;;1.08;0.98;;;;;;;;;;4998003;28;20153;-72
2022/11/19 07:29:44;;;;;;;2.05;1.00;;;;;;;;;;4998008;28;20049;-72
2022/11/19 07:32:10;;;;;;;1.10;1.00;;;;;;;;;;4995516;28;20073;-72
2022/11/19 07:34:35;;;;;;;1.05;0.95;;;;;;;;;;4998099;28;20081;-72
2022/11/19 07:37:01;;;;;;;0.60;0.60;;;;;;;;;;4998301;28;20073;-73
2022/11/19 07:39:26;;;;;;;1.27;0.70;;;;;;;;;;4995994;28;20196;-71
2022/11/19 07:44:39;;;;;;;1.80;0.80;;;;;;;;;;4994959;28;20085;-72
2022/11/19 07:47:06;;;;;;;0.85;0.70;;;;;;;;;;5000199;28;20402;-71
2022/11/19 07:49:32;;;;;;;0.63;0.60;;;;;;;;;;5002213;28;20465;-71
2022/11/19 07:51:57;;;;;;;0.77;0.77;;;;;;;;;;5001728;28;20058;-71
2022/11/19 07:54:23;;;;;;;1.05;0.88;;;;;;;;;;5000660;28;20049;-72
2022/11/19 07:56:48;;;;;;;1.45;0.90;;;;;;;;;;5000765;28;20058;-72
2022/11/19 07:59:14;;;;;;;2.03;1.27;;;;;;;;;;5002474;28;20417;-73
2022/11/19 08:01:39;;;;;;;1.13;1.00;;;;;;;;;;5001622;28;20038;-72
2022/11/19 08:04:05;;;;;;;3.40;0.82;;;;;;;;;;5001722;28;20049;-72
2022/11/19 08:06:33;;;;;;;2.15;1.00;;;;;;;;;;4999160;28;20050;-72
2022/11/19 08:08:59;;;;;;;3.33;1.10;;;;;;;;;;5002803;28;20081;-70
2022/11/19 08:11:24;;;;;;;2.75;1.15;;;;;;;;;;5001705;28;20141;-71
2022/11/19 08:13:51;;;;;;;1.70;1.20;;;;;;;;;;5000673;28;20076;-71
2022/11/19 08:18:11;;;;;;;1.50;0.90;;;;;;;;;;5000671;28;20084;-71
2022/11/19 08:19:08;;;;;;;1.95;0.73;;;;;;;;;;5001283;28;20073;-71
2022/11/19 08:21:34;;;;;;;1.05;0.98;;;;;;;;;;5001353;28;20127;-71
2022/11/19 08:24:00;;;;;;;0.95;0.70;;;;;;;;;;5001461;28;20056;-71
2022/11/19 08:26:25;;;;;;;1.15;0.70;;;;;;;;;;4999249;28;20045;-71
2022/11/19 08:28:52;;;;;;;0.77;0.77;;;;;;;;;;4999132;28;20391;-71
2022/11/19 08:31:17;;;;;;;0.63;0.50;;;;;;;;;;4999579;28;20050;-70
2022/11/19 08:33:43;;;;;;;5.85;1.05;;;;;;;;;;4982119;28;20231;-71
2022/11/19 08:36:08;;;;;;;0.55;0.55;;;;;;;;;;4998601;28;20156;-71
2022/11/19 08:38:34;;;;;;;1.38;0.60;;;;;;;;;;4998373;28;20050;-71
2022/11/19 08:43:43;;;;;;;0.73;0.57;;;;;;;;;;4999267;28;20042;-71
2022/11/19 08:46:09;;;;;;;1.42;0.65;;;;;;;;;;4999806;28;20052;-70
2022/11/19 08:48:34;;;;;;;2.47;1.08;;;;;;;;;;5000552;28;20069;-71
2022/11/19 08:51:08;;;;;;;0.68;0.60;;;;;;;;;;4996699;28;20061;-70
2022/11/19 08:53:35;;;;;;;2.35;0.63;;;;;;;;;;4999167;28;20046;-71
2022/11/19 08:56:01;;;;;;;0.60;0.60;;;;;;;;;;5000144;28;20061;-71
2022/11/19 08:58:27;;;;;;;2.20;0.77;;;;;;;;;;5001275;28;20045;-71
2022/11/19 09:00:53;;;;;;;1.67;0.80;;;;;;;;;;4998790;28;20038;-71
2022/11/19 09:03:19;;;;;;;1.10;0.90;;;;;;;;;;4999786;28;20070;-71
2022/11/19 09:05:44;;;;;;;2.67;1.30;;;;;;;;;;4999815;28;20049;-71
2022/11/19 09:08:10;;;;;;;2.13;0.80;;;;;;;;;;5000044;28;20545;-71
2022/11/19 09:10:36;;;;;;;0.73;0.73;;;;;;;;;;5000563;28;20046;-72
2022/11/19 09:13:05;;;;;;;0.50;0.50;;;;;;;;;;4999346;28;20057;-71
2022/11/19 09:15:30;;;;;;;2.00;0.68;;;;;;;;;;5000710;28;20045;-71
2022/11/19 09:17:56;;;;;;;1.50;0.73;;;;;;;;;;4999992;28;20038;-72
2022/11/19 09:20:21;;;;;;;0.50;0.50;;;;;;;;;;5000765;28;20507;-72
2022/11/19 09:22:47;;;;;;;0.40;0.40;;;;;;;;;;4995783;28;20041;-72
2022/11/19 09:25:12;;;;;;;1.02;0.60;;;;;;;;;;4999034;28;20061;-72
2022/11/19 09:27:38;;;;;;;0.65;0.63;;;;;;;;;;4999327;28;20053;-72
2022/11/19 09:30:05;;;;;;;0.75;0.57;;;;;;;;;;5000122;28;20061;-72
2022/11/19 09:32:30;;;;;;;0.60;0.57;;;;;;;;;;5001593;28;20048;-72
2022/11/19 09:34:56;;;;;;;0.93;0.57;;;;;;;;;;4992060;28;20038;-72
2022/11/19 09:37:21;;;;;;;0.70;0.60;;;;;;;;;;5001287;28;20111;-72
2022/11/19 09:39:47;;;;;;;0.75;0.60;;;;;;;;;;5000332;28;20096;-72
2022/11/19 09:42:19;;;;;;;0.70;0.70;;;;;;;;;;5001680;28;20038;-72
2022/11/19 09:45:16;;;;;;;0.60;0.52;;;;;;;;;;4997273;28;20042;-72
2022/11/19 09:48:09;;;;;;;0.70;0.70;;;;;;;;;;4999994;28;20046;-72
2022/11/19 09:50:53;;;;;;;0.55;0.55;;;;;;;;;;5000968;28;20204;-70
2022/11/19 09:53:21;;;;;;;0.85;0.47;;;;;;;;;;5001741;28;20080;-71
2022/11/19 09:55:49;;;;;;;9.30;0.90;;;;;;;;;;4998195;28;20069;-72
2022/11/19 09:58:17;;;;;;;0.73;0.70;;;;;;;;;;5002031;28;20050;-72
2022/11/19 10:00:44;;;;;;;0.47;0.47;;;;;;;;;;4999346;28;20034;-71
2022/11/19 10:03:27;;;;;;;1.73;0.80;;;;;;;;;;5002004;28;20053;-72
2022/11/19 10:05:59;;;;;;;1.02;0.60;;;;;;;;;;4999854;28;20049;-72
2022/11/19 10:08:48;;;;;;;1.65;0.65;;;;;;;;;;5000101;28;20148;-72
2022/11/19 10:11:16;;;;;;;0.50;0.50;;;;;;;;;;4978770;28;20046;-72
2022/11/19 10:13:44;;;;;;;1.95;0.77;;;;;;;;;;4999619;28;20495;-72
2022/11/19 10:16:09;;;;;;;0.93;0.50;;;;;;;;;;5000808;28;20050;-72
2022/11/19 10:18:46;;;;;;;0.63;0.50;;;;;;;;;;4999629;28;20056;-72
2022/11/19 10:21:44;;;;;;;0.75;0.47;;;;;;;;;;5000901;28;20284;-73
2022/11/19 10:24:16;;;;;;;1.50;0.60;;;;;;;;;;5014663;28;20058;-72
2022/11/19 10:26:47;;;;;;;1.75;0.70;;;;;;;;;;5000523;28;20140;-73
2022/11/19 10:29:16;;;;;;;6.68;1.15;;;;;;;;;;4999808;28;20049;-73
2022/11/19 10:31:48;;;;;;;0.90;0.70;;;;;;;;;;5000016;28;20089;-72
2022/11/19 10:34:28;;;;;;;0.57;0.57;;;;;;;;;;5001666;28;20606;-73
2022/11/19 10:36:57;;;;;;;0.63;0.63;;;;;;;;;;4999969;28;20556;-73
2022/11/19 10:39:32;;;;;;;0.50;0.50;;;;;;;;;;4997866;28;20056;-73
2022/11/19 10:42:19;;;;;;;0.70;0.60;;;;;;;;;;4999399;28;20060;-73
2022/11/19 10:44:52;;;;;;;0.50;0.50;;;;;;;;;;5000983;28;20104;-72
2022/11/19 10:47:21;;;;;;;0.80;0.80;;;;;;;;;;5000904;28;20121;-73
2022/11/19 10:49:54;;;;;;;0.70;0.70;;;;;;;;;;4999077;28;20059;-74
2022/11/19 10:52:40;;;;;;;0.90;0.73;;;;;;;;;;4997441;28;20499;-73
2022/11/19 10:55:22;;;;;;;4.25;1.23;;;;;;;;;;4998002;28;20060;-74
2022/11/19 10:57:51;;;;;;;0.80;0.80;;;;;;;;;;4999063;28;20053;-73
2022/11/19 11:00:17;;;;;;;0.75;0.60;;;;;;;;;;5003121;28;20074;-74
2022/11/19 11:02:51;;;;;;;0.63;0.63;;;;;;;;;;5000803;28;20193;-75
2022/11/19 11:05:18;;;;;;;2.38;0.70;;;;;;;;;;5001564;28;20510;-74
2022/11/19 11:07:49;;;;;;;0.73;0.73;;;;;;;;;;5002724;28;20045;-75
2022/11/19 11:10:36;;;;;;;0.70;0.70;;;;;;;;;;5002763;28;20050;-73
2022/11/19 11:16:07;;;;;;;0.88;0.60;;;;;;;;;;4999657;28;20072;-74
2022/11/19 11:18:34;;;;;;;0.52;0.52;;;;;;;;;;5000783;28;20081;-75
2022/11/19 11:21:00;;;;;;;1.17;0.60;;;;;;;;;;5000845;28;20581;-74
2022/11/19 11:23:28;;;;;;;1.85;0.98;;;;;;;;;;4999819;28;20060;-73
2022/11/19 11:26:07;;;;;;;0.77;0.70;;;;;;;;;;4999626;28;20096;-74
2022/11/19 11:28:33;;;;;;;0.38;0.38;;;;;;;;;;4999363;28;20068;-75
2022/11/19 11:31:04;;;;;;;0.40;0.40;;;;;;;;;;4998839;28;20487;-75
2022/11/19 11:33:34;;;;;;;0.93;0.73;;;;;;;;;;4998965;28;20542;-74
2022/11/19 11:36:05;;;;;;;0.82;0.50;;;;;;;;;;4998421;28;20045;-74
2022/11/19 11:38:37;;;;;;;0.73;0.55;;;;;;;;;;4999124;28;20041;-73
2022/11/19 11:41:05;;;;;;;0.47;0.47;;;;;;;;;;5000323;28;20038;-75
2022/11/19 11:43:32;;;;;;;0.70;0.50;;;;;;;;;;4992388;28;20419;-73
2022/11/19 11:46:00;;;;;;;1.30;0.80;;;;;;;;;;5004178;28;20747;-74
2022/11/19 11:48:33;;;;;;;1.35;0.55;;;;;;;;;;4999567;28;20103;-74
2022/11/19 11:50:59;;;;;;;2.67;0.60;;;;;;;;;;4997257;28;20224;-73
2022/11/19 11:53:31;;;;;;;3.40;0.60;;;;;;;;;;4990582;28;20058;-73
2022/11/19 11:55:58;;;;;;;;;;;;;;;;;;4992371;28;20046;-73
2022/11/19 11:58:32;;;;;;;1.20;0.60;;;;;;;;;;4995516;28;19921;-72
2022/11/19 12:01:18;;;;;;;2.53;0.88;;;;;;;;;;4996122;28;20041;-74
2022/11/19 12:03:55;;;;;;;2.22;1.10;;;;;;;;;;5001101;28;20065;-73
2022/11/19 12:06:24;;;;;;;4.55;0.65;;;;;;;;;;4994924;28;20060;-74
2022/11/19 12:09:26;;;;;;;0.93;0.85;;;;;;;;;;4995267;28;20928;-74
2022/11/19 12:12:10;;;;;;;0.65;0.65;;;;;;;;;;5004802;28;20042;-73
2022/11/19 12:14:56;;;;;;;0.90;0.90;;;;;;;;;;4997016;28;20057;-74
2022/11/19 12:17:34;;;;;;;0.90;0.82;;;;;;;;;;4988795;28;20058;-73
2022/11/19 12:20:08;;;;;;;1.58;1.10;;;;;;;;;;4995553;28;20498;-73
2022/11/19 12:22:49;;;;;;;1.25;0.90;;;;;;;;;;4998544;28;20054;-74
2022/11/19 12:25:39;;;;;;;1.17;0.70;;;;;;;;;;4995356;28;20075;-74
2022/11/19 12:28:29;;;;;;;1.40;0.70;;;;;;;;;;4996933;28;20048;-74
2022/11/19 12:30:55;;;;;;;1.02;0.70;;;;;;;;;;4993907;28;20051;-74
2022/11/19 12:33:37;;;;;;;0.60;0.60;;;;;;;;;;4997849;28;20451;-72
2022/11/19 12:36:22;;;;;;;;;;;;;;;;;;5000984;28;20049;-72
2022/11/19 12:38:57;;;;;;;0.80;0.60;;;;;;;;;;5001985;28;19975;-73
2022/11/19 12:41:31;;;;;;;2.03;0.85;;;;;;;;;;5000659;28;20084;-72
2022/11/19 12:43:59;;;;;;;0.88;0.75;;;;;;;;;;5001104;28;20060;-72
2022/11/19 12:46:53;;;;;;;2.22;1.13;;;;;;;;;;4999308;28;20060;-72
2022/11/19 12:49:30;;;;;;;0.70;0.55;;;;;;;;;;4999914;28;20057;-73
2022/11/19 12:52:11;;;;;;;0.55;0.50;;;;;;;;;;4983599;28;20068;-74
2022/11/19 12:55:25;;;;;;;1.90;0.70;;;;;;;;;;5000416;28;20046;-73
2022/11/19 12:58:03;;;;;;;0.50;0.50;;;;;;;;;;4964224;28;20049;-72
2022/11/19 13:00:29;;;;;;;1.10;0.80;;;;;;;;;;5000203;28;20045;-74
2022/11/19 13:03:07;;;;;;;0.75;0.70;;;;;;;;;;5002098;28;20042;-73
2022/11/19 13:05:51;;;;;;;0.85;0.77;;;;;;;;;;5001748;28;20518;-71
2022/11/19 13:08:32;;;;;;;0.90;0.75;;;;;;;;;;4986229;28;20058;-71
2022/11/19 13:11:35;;;;;;;1.67;0.95;;;;;;;;;;5002880;28;20095;-72
2022/11/19 13:14:06;;;;;;;1.05;0.85;;;;;;;;;;5001041;28;20054;-71
2022/11/19 13:16:33;;;;;;;0.80;0.80;;;;;;;;;;5002270;28;20057;-72
2022/11/19 13:19:16;;;;;;;1.75;1.02;;;;;;;;;;5001400;28;20041;-72
2022/11/19 13:22:00;;;;;;;2.15;1.70;;;;;;;;;;5000779;28;20449;-72
2022/11/19 13:24:40;;;;;;;1.80;1.27;;;;;;;;;;4999925;28;20054;-72
2022/11/19 13:27:12;;;;;;;1.45;1.00;;;;;;;;;;5001233;28;20042;-74
2022/11/19 13:30:00;;;;;;;2.70;1.00;;;;;;;;;;5002332;28;20057;-73
2022/11/19 13:32:59;;;;;;;1.02;0.90;;;;;;;;;;5000599;28;20068;-70
2022/11/19 13:35:31;;;;;;;1.80;1.08;;;;;;;;;;5000714;28;20550;-72
2022/11/19 13:38:11;;;;;;;;;;;;;;;;;;5002002;28;20104;-73
2022/11/19 13:40:59;;;;;;;1.52;1.20;;;;;;;;;;5001168;28;19918;-73
2022/11/19 13:46:09;;;;;;;1.35;1.10;;;;;;;;;;5013408;28;20145;-72
2022/11/19 13:48:40;;;;;;;1.05;1.02;;;;;;;;;;5001792;28;20168;-72
2022/11/19 13:51:17;;;;;;;2.78;1.25;;;;;;;;;;5002188;28;20045;-73
2022/11/19 13:53:45;;;;;;;1.20;1.10;;;;;;;;;;5001821;28;20042;-72
2022/11/19 13:56:14;;;;;;;1.38;1.00;;;;;;;;;;4999723;28;20494;-72
2022/11/19 13:58:58;;;;;;;1.48;1.02;;;;;;;;;;4999204;28;20902;-72
2022/11/19 14:01:29;;;;;;;1.55;1.10;;;;;;;;;;5000581;28;20136;-72
2022/11/19 14:04:00;;;;;;;1.60;1.27;;;;;;;;;;5001780;28;20498;-72
2022/11/19 14:06:47;;;;;;;3.22;1.40;;;;;;;;;;5002128;28;20453;-73
2022/11/19 14:09:47;;;;;;;1.85;1.13;;;;;;;;;;4987942;28;20041;-72
2022/11/19 14:12:22;;;;;;;2.92;1.70;;;;;;;;;;4995498;28;20070;-74
2022/11/19 14:27:25;;;;;;;2.15;1.20;;;;;;;;;;5000967;28;20053;-73
2022/11/19 14:29:56;;;;;;;1.20;1.10;;;;;;;;;;4999789;28;20041;-74
2022/11/19 14:32:51;;;;;;;3.75;1.30;;;;;;;;;;4998451;28;20084;-72
2022/11/19 14:35:26;;;;;;;3.22;1.30;;;;;;;;;;5000012;28;20529;-72
2022/11/19 14:38:27;;;;;;;2.67;1.23;;;;;;;;;;5000122;28;20171;-73
2022/11/19 14:41:03;;;;;;;22.42;13.18;;;;;;;;;;5001307;28;20414;-74
2022/11/19 14:46:13;;;;;;;2.28;1.50;;;;;;;;;;5012810;28;20038;-73
2022/11/19 14:48:38;;;;;;;3.35;1.65;;;;;;;;;;4999886;28;20057;-73
2022/11/19 14:51:10;;;;;;;3.45;1.85;;;;;;;;;;5000301;28;20135;-73
2022/11/19 14:53:51;;;;;;;3.95;2.03;;;;;;;;;;4992814;28;20057;-74
2022/11/19 14:56:19;;;;;;;8.40;2.50;;;;;;;;;;4996974;28;20517;-73
2022/11/19 14:58:51;;;;;;;4.18;2.20;;;;;;;;;;4997056;28;20057;-74
2022/11/19 15:01:19;;;;;;;4.30;2.25;;;;;;;;;;4996326;28;20033;-73
2022/11/19 15:03:57;;;;;;;5.97;2.50;;;;;;;;;;4998506;28;20068;-73
2022/11/19 15:06:23;;;;;;;2.38;2.03;;;;;;;;;;4996643;28;20077;-74
2022/11/19 15:08:51;;;;;;;3.22;2.00;;;;;;;;;;4999428;28;20449;-74
2022/11/19 15:11:17;;;;;;;6.40;2.30;;;;;;;;;;4996388;28;20096;-74
2022/11/19 15:13:44;;;;;;;3.22;1.63;;;;;;;;;;4997471;28;20495;-74
2022/11/19 15:16:19;;;;;;;3.85;1.98;;;;;;;;;;4996601;28;20152;-74
2022/11/19 15:18:44;;;;;;;1.73;1.63;;;;;;;;;;4999085;28;20111;-76
2022/11/19 15:21:35;;;;;;;1.90;1.60;;;;;;;;;;4999039;28;20054;-74
2022/11/19 15:24:22;;;;;;;2.63;1.88;;;;;;;;;;5006132;28;20057;-74
2022/11/19 15:26:56;;;;;;;3.22;1.77;;;;;;;;;;4996079;28;20950;-75
2022/11/19 15:29:45;;;;;;;3.35;2.20;;;;;;;;;;4980928;28;20046;-74
2022/11/19 15:32:44;;;;;;;6.80;2.30;;;;;;;;;;5010070;28;20408;-74
2022/11/19 15:35:18;;;;;;;4.10;2.33;;;;;;;;;;4996898;28;20434;-73
2022/11/19 15:37:53;;;;;;;4.07;2.20;;;;;;;;;;4994204;28;20096;-75
2022/11/19 15:40:24;;;;;;;2.45;1.70;;;;;;;;;;4995449;28;20487;-75
2022/11/19 15:42:58;;;;;;;1.85;1.60;;;;;;;;;;4997700;28;20580;-75
2022/11/19 15:45:24;;;;;;;1.50;1.40;;;;;;;;;;4998378;28;20066;-77